RJFY(METAR)
10/16 18:00
METAR RJFY 160900Z 07008KT 9999 FEW030 BKN050 21/15 Q1020 RMK 1CU030
5SC050 A3014=
戻る
トップページへ戻る
IMOC Co,.Ltd.